sensor_id;sensor_type;location;lat;lon;timestamp;pressure;altitude;pressure_sealevel;temperature
66473;BMP280;66089;50.000;10.502;2022-12-20T06:30:08;99194.19;;;3.05
66473;BMP280;66089;50.000;10.502;2022-12-20T06:32:34;99197.97;;;3.10
66473;BMP280;66089;50.000;10.502;2022-12-20T06:34:59;99206.13;;;3.14
66473;BMP280;66089;50.000;10.502;2022-12-20T06:37:24;99201.28;;;3.11
66473;BMP280;66089;50.000;10.502;2022-12-20T06:39:50;99204.41;;;3.14
66473;BMP280;66089;50.000;10.502;2022-12-20T06:42:15;99217.41;;;3.21
66473;BMP280;66089;50.000;10.502;2022-12-20T06:44:40;99216.59;;;3.21
66473;BMP280;66089;50.000;10.502;2022-12-20T06:47:06;99212.00;;;3.26
66473;BMP280;66089;50.000;10.502;2022-12-20T06:49:31;99223.81;;;3.25
66473;BMP280;66089;50.000;10.502;2022-12-20T06:51:56;99223.47;;;3.19
66473;BMP280;66089;50.000;10.502;2022-12-20T06:54:22;99233.00;;;3.15
66473;BMP280;66089;50.000;10.502;2022-12-20T06:56:47;99232.28;;;3.13
66473;BMP280;66089;50.000;10.502;2022-12-20T06:59:12;99227.56;;;3.08
66473;BMP280;66089;50.000;10.502;2022-12-20T07:01:38;99215.28;;;3.04
66473;BMP280;66089;50.000;10.502;2022-12-20T07:04:03;99209.44;;;3.03
66473;BMP280;66089;50.000;10.502;2022-12-20T07:06:28;99196.00;;;3.03
66473;BMP280;66089;50.000;10.502;2022-12-20T07:08:54;99183.94;;;2.95
66473;BMP280;66089;50.000;10.502;2022-12-20T07:11:20;99180.84;;;2.92
66473;BMP280;66089;50.000;10.502;2022-12-20T07:13:45;99179.44;;;2.88
66473;BMP280;66089;50.000;10.502;2022-12-20T07:16:11;99179.44;;;2.88
66473;BMP280;66089;50.000;10.502;2022-12-20T07:18:36;99192.06;;;2.88
66473;BMP280;66089;50.000;10.502;2022-12-20T07:21:03;99186.31;;;2.86
66473;BMP280;66089;50.000;10.502;2022-12-20T07:23:29;99185.53;;;2.85
66473;BMP280;66089;50.000;10.502;2022-12-20T07:25:55;99194.59;;;2.88
66473;BMP280;66089;50.000;10.502;2022-12-20T07:28:21;99195.28;;;2.90
66473;BMP280;66089;50.000;10.502;2022-12-20T07:30:47;99198.06;;;2.98
66473;BMP280;66089;50.000;10.502;2022-12-20T07:33:12;99194.41;;;3.02
66473;BMP280;66089;50.000;10.502;2022-12-20T07:35:37;99190.38;;;3.10
66473;BMP280;66089;50.000;10.502;2022-12-20T07:38:02;99187.66;;;3.13
66473;BMP280;66089;50.000;10.502;2022-12-20T07:40:28;99191.66;;;3.16
66473;BMP280;66089;50.000;10.502;2022-12-20T07:42:53;99190.44;;;3.22
66473;BMP280;66089;50.000;10.502;2022-12-20T07:45:19;99187.44;;;3.28
66473;BMP280;66089;50.000;10.502;2022-12-20T07:47:44;99193.84;;;3.32
66473;BMP280;66089;50.000;10.502;2022-12-20T07:50:10;99180.41;;;3.31
66473;BMP280;66089;50.000;10.502;2022-12-20T07:52:36;99179.06;;;3.38
66473;BMP280;66089;50.000;10.502;2022-12-20T07:55:04;99184.22;;;3.37
66473;BMP280;66089;50.000;10.502;2022-12-20T07:57:38;99170.44;;;3.41
66473;BMP280;66089;50.000;10.502;2022-12-20T08:00:09;99170.56;;;3.50
66473;BMP280;66089;50.000;10.502;2022-12-20T08:02:38;99167.81;;;3.53
66473;BMP280;66089;50.000;10.502;2022-12-20T08:05:06;99180.75;;;3.60
66473;BMP280;66089;50.000;10.502;2022-12-20T08:07:32;99194.44;;;3.69
66473;BMP280;66089;50.000;10.502;2022-12-20T08:09:58;99195.03;;;3.72
66473;BMP280;66089;50.000;10.502;2022-12-20T08:12:23;99195.69;;;3.74
66473;BMP280;66089;50.000;10.502;2022-12-20T08:14:50;99193.84;;;3.76
66473;BMP280;66089;50.000;10.502;2022-12-20T08:17:20;99190.84;;;3.82
66473;BMP280;66089;50.000;10.502;2022-12-20T08:19:45;99193.38;;;3.82
66473;BMP280;66089;50.000;10.502;2022-12-20T08:22:11;99186.00;;;3.79
66473;BMP280;66089;50.000;10.502;2022-12-20T08:24:36;99187.41;;;3.83
66473;BMP280;66089;50.000;10.502;2022-12-20T08:27:02;99190.94;;;3.81
66473;BMP280;66089;50.000;10.502;2022-12-20T08:29:27;99195.22;;;3.92
66473;BMP280;66089;50.000;10.502;2022-12-20T08:31:52;99188.06;;;3.97
66473;BMP280;66089;50.000;10.502;2022-12-20T08:34:18;99190.59;;;3.97
66473;BMP280;66089;50.000;10.502;2022-12-20T08:36:43;99182.28;;;4.06
66473;BMP280;66089;50.000;10.502;2022-12-20T08:39:08;99168.94;;;4.04
66473;BMP280;66089;50.000;10.502;2022-12-20T08:41:36;99173.09;;;4.05
66473;BMP280;66089;50.000;10.502;2022-12-20T08:44:02;99166.06;;;4.08
66473;BMP280;66089;50.000;10.502;2022-12-20T08:46:27;99169.19;;;4.12
66473;BMP280;66089;50.000;10.502;2022-12-20T08:48:53;99161.47;;;4.02
66473;BMP280;66089;50.000;10.502;2022-12-20T08:51:18;99149.28;;;4.07
66473;BMP280;66089;50.000;10.502;2022-12-20T08:53:43;99148.25;;;4.10
66473;BMP280;66089;50.000;10.502;2022-12-20T08:56:12;99150.09;;;4.08
66473;BMP280;66089;50.000;10.502;2022-12-20T08:58:38;99160.69;;;4.02
66473;BMP280;66089;50.000;10.502;2022-12-20T09:01:07;99161.13;;;4.07
66473;BMP280;66089;50.000;10.502;2022-12-20T09:03:34;99151.72;;;4.09
66473;BMP280;66089;50.000;10.502;2022-12-20T09:06:00;99142.63;;;4.06
66473;BMP280;66089;50.000;10.502;2022-12-20T09:08:26;99151.47;;;4.12
66473;BMP280;66089;50.000;10.502;2022-12-20T09:10:52;99160.78;;;4.11
66473;BMP280;66089;50.000;10.502;2022-12-20T09:13:18;99159.19;;;4.10
66473;BMP280;66089;50.000;10.502;2022-12-20T09:15:43;99159.75;;;4.14
66473;BMP280;66089;50.000;10.502;2022-12-20T09:18:09;99151.59;;;4.10
66473;BMP280;66089;50.000;10.502;2022-12-20T09:20:34;99133.53;;;4.15
66473;BMP280;66089;50.000;10.502;2022-12-20T09:23:00;99121.44;;;4.18
66473;BMP280;66089;50.000;10.502;2022-12-20T09:25:26;99109.72;;;4.17
66473;BMP280;66089;50.000;10.502;2022-12-20T09:27:52;99101.59;;;4.14
66473;BMP280;66089;50.000;10.502;2022-12-20T09:30:20;99113.50;;;4.23
66473;BMP280;66089;50.000;10.502;2022-12-20T09:32:46;99091.38;;;4.25
66473;BMP280;66089;50.000;10.502;2022-12-20T09:35:11;99088.84;;;4.25
66473;BMP280;66089;50.000;10.502;2022-12-20T09:37:36;99094.06;;;4.23
66473;BMP280;66089;50.000;10.502;2022-12-20T09:40:02;99099.75;;;4.37
66473;BMP280;66089;50.000;10.502;2022-12-20T09:42:28;99098.69;;;4.39
66473;BMP280;66089;50.000;10.502;2022-12-20T09:45:03;99100.53;;;4.37
66473;BMP280;66089;50.000;10.502;2022-12-20T09:47:30;99101.94;;;4.51
66473;BMP280;66089;50.000;10.502;2022-12-20T09:49:57;99089.97;;;4.53
66473;BMP280;66089;50.000;10.502;2022-12-20T09:52:39;99099.19;;;4.54
66473;BMP280;66089;50.000;10.502;2022-12-20T10:00:20;99095.22;;;4.40
66473;BMP280;66089;50.000;10.502;2022-12-20T10:02:46;99091.72;;;4.32
66473;BMP280;66089;50.000;10.502;2022-12-20T10:05:33;99091.66;;;4.22
66473;BMP280;66089;50.000;10.502;2022-12-20T10:13:16;99095.91;;;4.63
66473;BMP280;66089;50.000;10.502;2022-12-20T10:21:34;99061.34;;;4.52
66473;BMP280;66089;50.000;10.502;2022-12-20T10:24:06;99079.59;;;4.56
66473;BMP280;66089;50.000;10.502;2022-12-20T10:26:34;99077.06;;;4.56
66473;BMP280;66089;50.000;10.502;2022-12-20T10:28:59;99085.88;;;4.61
66473;BMP280;66089;50.000;10.502;2022-12-20T10:31:26;99080.94;;;4.60
66473;BMP280;66089;50.000;10.502;2022-12-20T10:33:51;99072.06;;;4.66
66473;BMP280;66089;50.000;10.502;2022-12-20T10:36:29;99074.97;;;4.61
66473;BMP280;66089;50.000;10.502;2022-12-20T10:38:56;99087.69;;;4.71
66473;BMP280;66089;50.000;10.502;2022-12-20T10:41:29;99081.84;;;4.80
66473;BMP280;66089;50.000;10.502;2022-12-20T10:44:05;99073.63;;;4.87
66473;BMP280;66089;50.000;10.502;2022-12-20T10:46:43;99087.22;;;4.96
66473;BMP280;66089;50.000;10.502;2022-12-20T10:49:21;99094.44;;;4.91
66473;BMP280;66089;50.000;10.502;2022-12-20T10:51:55;99085.13;;;5.01
66473;BMP280;66089;50.000;10.502;2022-12-20T10:54:28;99082.97;;;4.96
66473;BMP280;66089;50.000;10.502;2022-12-20T10:56:57;99067.50;;;4.99
66473;BMP280;66089;50.000;10.502;2022-12-20T10:59:43;99056.59;;;4.99
66473;BMP280;66089;50.000;10.502;2022-12-20T11:05:22;99049.91;;;4.98
66473;BMP280;66089;50.000;10.502;2022-12-20T11:07:55;99042.31;;;4.98
66473;BMP280;66089;50.000;10.502;2022-12-20T11:10:26;99041.13;;;5.02
66473;BMP280;66089;50.000;10.502;2022-12-20T11:12:53;99034.00;;;5.17
66473;BMP280;66089;50.000;10.502;2022-12-20T11:15:22;99027.88;;;5.19
66473;BMP280;66089;50.000;10.502;2022-12-20T11:17:55;99037.47;;;5.35
66473;BMP280;66089;50.000;10.502;2022-12-20T11:23:17;99008.41;;;5.39
66473;BMP280;66089;50.000;10.502;2022-12-20T11:26:21;99005.22;;;5.56
66473;BMP280;66089;50.000;10.502;2022-12-20T11:32:41;98995.75;;;5.39
66473;BMP280;66089;50.000;10.502;2022-12-20T11:37:26;98986.78;;;5.54
66473;BMP280;66089;50.000;10.502;2022-12-20T11:42:47;98988.91;;;5.49
66473;BMP280;66089;50.000;10.502;2022-12-20T11:45:24;98984.91;;;5.47
66473;BMP280;66089;50.000;10.502;2022-12-20T11:50:51;98973.75;;;5.40
66473;BMP280;66089;50.000;10.502;2022-12-20T11:56:20;98971.03;;;5.31
66473;BMP280;66089;50.000;10.502;2022-12-20T11:58:54;98977.47;;;5.26
66473;BMP280;66089;50.000;10.502;2022-12-20T12:01:30;98966.13;;;5.40
66473;BMP280;66089;50.000;10.502;2022-12-20T12:04:17;98956.22;;;5.46
66473;BMP280;66089;50.000;10.502;2022-12-20T12:06:47;98950.81;;;5.41
66473;BMP280;66089;50.000;10.502;2022-12-20T12:09:24;98957.16;;;5.45
66473;BMP280;66089;50.000;10.502;2022-12-20T12:12:03;98955.84;;;5.51
66473;BMP280;66089;50.000;10.502;2022-12-20T12:14:50;98945.44;;;5.54
66473;BMP280;66089;50.000;10.502;2022-12-20T12:17:38;98945.69;;;5.51
66473;BMP280;66089;50.000;10.502;2022-12-20T12:20:24;98946.47;;;5.61
66473;BMP280;66089;50.000;10.502;2022-12-20T12:22:59;98942.34;;;5.60
66473;BMP280;66089;50.000;10.502;2022-12-20T12:25:25;98934.63;;;5.52
66473;BMP280;66089;50.000;10.502;2022-12-20T12:27:50;98933.56;;;5.54
66473;BMP280;66089;50.000;10.502;2022-12-20T12:30:16;98932.50;;;5.57
66473;BMP280;66089;50.000;10.502;2022-12-20T12:32:44;98939.13;;;5.58
66473;BMP280;66089;50.000;10.502;2022-12-20T12:38:21;98952.63;;;5.49
66473;BMP280;66089;50.000;10.502;2022-12-20T12:43:40;98950.75;;;5.51
66473;BMP280;66089;50.000;10.502;2022-12-20T12:46:14;98949.97;;;5.50
66473;BMP280;66089;50.000;10.502;2022-12-20T12:51:27;98941.81;;;5.47
66473;BMP280;66089;50.000;10.502;2022-12-20T12:54:03;98933.94;;;5.50
66473;BMP280;66089;50.000;10.502;2022-12-20T12:56:39;98924.06;;;5.47
66473;BMP280;66089;50.000;10.502;2022-12-20T13:06:55;98912.34;;;5.26
66473;BMP280;66089;50.000;10.502;2022-12-20T13:11:50;98903.69;;;5.29
66473;BMP280;66089;50.000;10.502;2022-12-20T13:16:42;98895.28;;;5.28
66473;BMP280;66089;50.000;10.502;2022-12-20T13:19:31;98909.19;;;5.24
66473;BMP280;66089;50.000;10.502;2022-12-20T13:27:25;98904.91;;;5.34
66473;BMP280;66089;50.000;10.502;2022-12-20T13:29:53;98904.09;;;5.34
66473;BMP280;66089;50.000;10.502;2022-12-20T13:38:04;98895.84;;;5.42
66473;BMP280;66089;50.000;10.502;2022-12-20T13:40:41;98910.22;;;5.51
66473;BMP280;66089;50.000;10.502;2022-12-20T13:43:29;98919.28;;;5.53
66473;BMP280;66089;50.000;10.502;2022-12-20T13:46:13;98915.00;;;5.54
66473;BMP280;66089;50.000;10.502;2022-12-20T13:51:22;98896.47;;;5.44
66473;BMP280;66089;50.000;10.502;2022-12-20T13:53:58;98898.38;;;5.42
66473;BMP280;66089;50.000;10.502;2022-12-20T13:58:54;98883.16;;;5.32
66473;BMP280;66089;50.000;10.502;2022-12-20T14:01:22;98879.97;;;5.30
66473;BMP280;66089;50.000;10.502;2022-12-20T14:03:48;98875.56;;;5.32
66473;BMP280;66089;50.000;10.502;2022-12-20T14:06:15;98861.16;;;5.32
66473;BMP280;66089;50.000;10.502;2022-12-20T14:08:47;98866.91;;;5.34
66473;BMP280;66089;50.000;10.502;2022-12-20T14:11:15;98865.16;;;5.35
66473;BMP280;66089;50.000;10.502;2022-12-20T14:13:50;98872.75;;;5.35
66473;BMP280;66089;50.000;10.502;2022-12-20T14:16:18;98870.22;;;5.35
66473;BMP280;66089;50.000;10.502;2022-12-20T14:21:22;98865.69;;;5.39
66473;BMP280;66089;50.000;10.502;2022-12-20T14:23:50;98865.69;;;5.39
66473;BMP280;66089;50.000;10.502;2022-12-20T14:26:25;98860.88;;;5.35
66473;BMP280;66089;50.000;10.502;2022-12-20T14:28:56;98850.34;;;5.30
66473;BMP280;66089;50.000;10.502;2022-12-20T14:31:23;98846.34;;;5.28
66473;BMP280;66089;50.000;10.502;2022-12-20T14:33:51;98855.81;;;5.35
66473;BMP280;66089;50.000;10.502;2022-12-20T14:36:24;98863.44;;;5.26
66473;BMP280;66089;50.000;10.502;2022-12-20T14:38:50;98869.81;;;5.30
66473;BMP280;66089;50.000;10.502;2022-12-20T14:44:20;98866.47;;;5.29
66473;BMP280;66089;50.000;10.502;2022-12-20T14:46:55;98862.22;;;5.30
66473;BMP280;66089;50.000;10.502;2022-12-20T14:49:24;98864.88;;;5.28
66473;BMP280;66089;50.000;10.502;2022-12-20T14:51:54;98869.44;;;5.34
66473;BMP280;66089;50.000;10.502;2022-12-20T14:54:28;98863.44;;;5.35
66473;BMP280;66089;50.000;10.502;2022-12-20T14:56:53;98865.16;;;5.35
66473;BMP280;66089;50.000;10.502;2022-12-20T14:59:25;98872.63;;;5.36
66473;BMP280;66089;50.000;10.502;2022-12-20T15:01:51;98850.03;;;5.43
66473;BMP280;66089;50.000;10.502;2022-12-20T15:04:31;98842.44;;;5.43
66473;BMP280;66089;50.000;10.502;2022-12-20T15:06:57;98827.16;;;5.35
66473;BMP280;66089;50.000;10.502;2022-12-20T15:09:23;98820.34;;;5.35
66473;BMP280;66089;50.000;10.502;2022-12-20T15:11:49;98817.28;;;5.32
66473;BMP280;66089;50.000;10.502;2022-12-20T15:16:53;98817.53;;;5.29
66473;BMP280;66089;50.000;10.502;2022-12-20T15:19:18;98819.41;;;5.27
66473;BMP280;66089;50.000;10.502;2022-12-20T15:21:44;98802.91;;;5.23
66473;BMP280;66089;50.000;10.502;2022-12-20T15:24:19;98800.09;;;5.26
66473;BMP280;66089;50.000;10.502;2022-12-20T15:26:47;98799.94;;;5.27
66473;BMP280;66089;50.000;10.502;2022-12-20T15:29:20;98807.53;;;5.27
66473;BMP280;66089;50.000;10.502;2022-12-20T15:31:47;98813.28;;;5.29
66473;BMP280;66089;50.000;10.502;2022-12-20T15:34:17;98835.94;;;5.31
66473;BMP280;66089;50.000;10.502;2022-12-20T15:36:43;98845.94;;;5.32
66473;BMP280;66089;50.000;10.502;2022-12-20T15:39:10;98827.41;;;5.32
66473;BMP280;66089;50.000;10.502;2022-12-20T15:41:39;98822.34;;;5.32
66473;BMP280;66089;50.000;10.502;2022-12-20T15:44:11;98827.28;;;5.33
66473;BMP280;66089;50.000;10.502;2022-12-20T15:46:37;98830.75;;;5.32
66473;BMP280;66089;50.000;10.502;2022-12-20T15:49:03;98828.34;;;5.31
66473;BMP280;66089;50.000;10.502;2022-12-20T15:51:34;98821.53;;;5.31
66473;BMP280;66089;50.000;10.502;2022-12-20T15:54:01;98830.75;;;5.32
66473;BMP280;66089;50.000;10.502;2022-12-20T15:56:27;98818.88;;;5.33
66473;BMP280;66089;50.000;10.502;2022-12-20T15:58:54;98813.94;;;5.31
66473;BMP280;66089;50.000;10.502;2022-12-20T16:01:24;98833.03;;;5.35
66473;BMP280;66089;50.000;10.502;2022-12-20T16:03:49;98811.44;;;5.22
66473;BMP280;66089;50.000;10.502;2022-12-20T16:06:15;98814.75;;;5.22
66473;BMP280;66089;50.000;10.502;2022-12-20T16:08:41;98801.66;;;5.27
66473;BMP280;66089;50.000;10.502;2022-12-20T16:11:16;98776.66;;;5.14
66473;BMP280;66089;50.000;10.502;2022-12-20T16:13:43;98774.91;;;5.15
66473;BMP280;66089;50.000;10.502;2022-12-20T16:16:15;98772.16;;;5.08
66473;BMP280;66089;50.000;10.502;2022-12-20T16:18:40;98786.53;;;5.08
66473;BMP280;66089;50.000;10.502;2022-12-20T16:21:13;98776.91;;;5.11
66473;BMP280;66089;50.000;10.502;2022-12-20T16:23:41;98785.72;;;5.17
66473;BMP280;66089;50.000;10.502;2022-12-20T16:26:11;98769.06;;;5.14
66473;BMP280;66089;50.000;10.502;2022-12-20T16:28:36;98749.69;;;5.23
66473;BMP280;66089;50.000;10.502;2022-12-20T16:31:10;98759.03;;;5.22
66473;BMP280;66089;50.000;10.502;2022-12-20T16:33:35;98759.31;;;5.19
66473;BMP280;66089;50.000;10.502;2022-12-20T16:36:00;98776.38;;;5.17
66473;BMP280;66089;50.000;10.502;2022-12-20T16:38:26;98777.59;;;5.13
66473;BMP280;66089;50.000;10.502;2022-12-20T16:40:51;98778.81;;;4.99
66473;BMP280;66089;50.000;10.502;2022-12-20T16:43:16;98777.31;;;4.97
66473;BMP280;66089;50.000;10.502;2022-12-20T16:45:42;98760.94;;;5.01
66473;BMP280;66089;50.000;10.502;2022-12-20T16:48:07;98762.53;;;5.02
66473;BMP280;66089;50.000;10.502;2022-12-20T16:50:32;98765.47;;;5.07
66473;BMP280;66089;50.000;10.502;2022-12-20T16:52:59;98752.16;;;5.05
66473;BMP280;66089;50.000;10.502;2022-12-20T16:55:26;98758.28;;;5.03
66473;BMP280;66089;50.000;10.502;2022-12-20T16:57:52;98775.19;;;5.02
66473;BMP280;66089;50.000;10.502;2022-12-20T17:00:22;98796.69;;;5.08
66473;BMP280;66089;50.000;10.502;2022-12-20T17:02:48;98803.19;;;5.10
66473;BMP280;66089;50.000;10.502;2022-12-20T17:05:24;98806.66;;;5.09
66473;BMP280;66089;50.000;10.502;2022-12-20T17:07:51;98798.91;;;5.11
66473;BMP280;66089;50.000;10.502;2022-12-20T17:10:17;98801.19;;;5.14
66473;BMP280;66089;50.000;10.502;2022-12-20T17:12:43;98813.06;;;5.13
66473;BMP280;66089;50.000;10.502;2022-12-20T17:15:28;98815.31;;;5.16
66473;BMP280;66089;50.000;10.502;2022-12-20T17:17:56;98815.06;;;5.19
66473;BMP280;66089;50.000;10.502;2022-12-20T17:20:23;98824.09;;;5.22
66473;BMP280;66089;50.000;10.502;2022-12-20T17:22:51;98810.50;;;5.23
66473;BMP280;66089;50.000;10.502;2022-12-20T17:27:47;98793.19;;;5.18
66473;BMP280;66089;50.000;10.502;2022-12-20T17:30:12;98779.19;;;5.14
66473;BMP280;66089;50.000;10.502;2022-12-20T17:32:38;98780.00;;;5.15
66473;BMP280;66089;50.000;10.502;2022-12-20T17:35:03;98778.94;;;5.17
66473;BMP280;66089;50.000;10.502;2022-12-20T17:37:29;98775.16;;;5.21
66473;BMP280;66089;50.000;10.502;2022-12-20T17:39:54;98775.03;;;5.23
66473;BMP280;66089;50.000;10.502;2022-12-20T17:42:20;98773.97;;;5.25
66473;BMP280;66089;50.000;10.502;2022-12-20T17:44:45;98758.53;;;5.19
66473;BMP280;66089;50.000;10.502;2022-12-20T17:47:10;98768.66;;;5.19
66473;BMP280;66089;50.000;10.502;2022-12-20T17:49:36;98791.16;;;5.22
66473;BMP280;66089;50.000;10.502;2022-12-20T17:52:02;98791.41;;;5.28
66473;BMP280;66089;50.000;10.502;2022-12-20T17:54:28;98800.34;;;5.32
66473;BMP280;66089;50.000;10.502;2022-12-20T17:56:53;98795.53;;;5.39
66473;BMP280;66089;50.000;10.502;2022-12-20T17:59:37;98791.53;;;5.36
66473;BMP280;66089;50.000;10.502;2022-12-20T18:02:02;98795.69;;;5.38
66473;BMP280;66089;50.000;10.502;2022-12-20T18:04:27;98796.69;;;5.45
66473;BMP280;66089;50.000;10.502;2022-12-20T18:06:53;98786.22;;;5.40
66473;BMP280;66089;50.000;10.502;2022-12-20T18:09:21;98767.00;;;5.37
66473;BMP280;66089;50.000;10.502;2022-12-20T18:11:46;98768.34;;;5.31
66473;BMP280;66089;50.000;10.502;2022-12-20T18:14:13;98769.94;;;5.32
66473;BMP280;66089;50.000;10.502;2022-12-20T18:16:39;98776.19;;;5.28
66473;BMP280;66089;50.000;10.502;2022-12-20T18:19:05;98775.13;;;5.31
66473;BMP280;66089;50.000;10.502;2022-12-20T18:21:31;98788.88;;;5.28
66473;BMP280;66089;50.000;10.502;2022-12-20T18:23:56;98773.41;;;5.31
66473;BMP280;66089;50.000;10.502;2022-12-20T18:26:25;98766.06;;;5.28
66473;BMP280;66089;50.000;10.502;2022-12-20T18:28:55;98751.00;;;5.27
66473;BMP280;66089;50.000;10.502;2022-12-20T18:31:23;98749.00;;;5.30
66473;BMP280;66089;50.000;10.502;2022-12-20T18:33:52;98755.00;;;5.29
66473;BMP280;66089;50.000;10.502;2022-12-20T18:36:21;98749.56;;;5.24
66473;BMP280;66089;50.000;10.502;2022-12-20T18:38:48;98742.75;;;5.25
66473;BMP280;66089;50.000;10.502;2022-12-20T18:41:19;98741.28;;;5.22
66473;BMP280;66089;50.000;10.502;2022-12-20T18:43:45;98738.19;;;5.28
66473;BMP280;66089;50.000;10.502;2022-12-20T18:46:13;98732.75;;;5.23
66473;BMP280;66089;50.000;10.502;2022-12-20T18:48:39;98732.63;;;5.25
66473;BMP280;66089;50.000;10.502;2022-12-20T18:51:10;98725.03;;;5.25
66473;BMP280;66089;50.000;10.502;2022-12-20T18:53:37;98713.16;;;5.25
66473;BMP280;66089;50.000;10.502;2022-12-20T18:56:04;98716.09;;;5.21
66473;BMP280;66089;50.000;10.502;2022-12-20T18:58:30;98730.13;;;5.15
66473;BMP280;66089;50.000;10.502;2022-12-20T19:01:05;98724.97;;;5.07
66473;BMP280;66089;50.000;10.502;2022-12-20T19:03:31;98724.94;;;4.97
66473;BMP280;66089;50.000;10.502;2022-12-20T19:05:57;98736.47;;;4.92
66473;BMP280;66089;50.000;10.502;2022-12-20T19:08:24;98738.03;;;4.93
66473;BMP280;66089;50.000;10.502;2022-12-20T19:10:50;98723.22;;;4.98
66473;BMP280;66089;50.000;10.502;2022-12-20T19:13:16;98717.50;;;4.96
66473;BMP280;66089;50.000;10.502;2022-12-20T19:15:42;98725.22;;;5.04
66473;BMP280;66089;50.000;10.502;2022-12-20T19:18:08;98734.16;;;5.08
66473;BMP280;66089;50.000;10.502;2022-12-20T19:20:34;98728.28;;;5.08
66473;BMP280;66089;50.000;10.502;2022-12-20T19:23:00;98733.75;;;5.03
66473;BMP280;66089;50.000;10.502;2022-12-20T19:25:27;98726.16;;;5.03
66473;BMP280;66089;50.000;10.502;2022-12-20T19:27:52;98723.06;;;5.09
66473;BMP280;66089;50.000;10.502;2022-12-20T19:30:17;98710.13;;;5.12
66473;BMP280;66089;50.000;10.502;2022-12-20T19:32:43;98697.47;;;5.12
66473;BMP280;66089;50.000;10.502;2022-12-20T19:35:08;98707.47;;;5.14
66473;BMP280;66089;50.000;10.502;2022-12-20T19:37:33;98702.94;;;5.17
66473;BMP280;66089;50.000;10.502;2022-12-20T19:39:59;98698.78;;;5.16
66473;BMP280;66089;50.000;10.502;2022-12-20T19:42:24;98688.41;;;5.19
66473;BMP280;66089;50.000;10.502;2022-12-20T19:44:50;98688.22;;;5.21
66473;BMP280;66089;50.000;10.502;2022-12-20T19:47:15;98702.94;;;5.17
66473;BMP280;66089;50.000;10.502;2022-12-20T19:49:40;98688.41;;;5.19
66473;BMP280;66089;50.000;10.502;2022-12-20T19:52:06;98685.84;;;5.19
66473;BMP280;66089;50.000;10.502;2022-12-20T19:54:31;98700.09;;;5.20
66473;BMP280;66089;50.000;10.502;2022-12-20T19:56:56;98692.88;;;5.25
66473;BMP280;66089;50.000;10.502;2022-12-20T19:59:23;98698.91;;;5.24
66473;BMP280;66089;50.000;10.502;2022-12-20T20:01:48;98690.50;;;5.24
66473;BMP280;66089;50.000;10.502;2022-12-20T20:04:13;98690.19;;;5.27
66473;BMP280;66089;50.000;10.502;2022-12-20T20:06:39;98684.25;;;5.18
66473;BMP280;66089;50.000;10.502;2022-12-20T20:09:04;98684.50;;;5.25
66473;BMP280;66089;50.000;10.502;2022-12-20T20:11:30;98681.66;;;5.28
66473;BMP280;66089;50.000;10.502;2022-12-20T20:13:55;98681.66;;;5.28
66473;BMP280;66089;50.000;10.502;2022-12-20T20:16:21;98690.06;;;5.28
66473;BMP280;66089;50.000;10.502;2022-12-20T20:18:48;98677.38;;;5.28
66473;BMP280;66089;50.000;10.502;2022-12-20T20:21:15;98677.91;;;5.32
66473;BMP280;66089;50.000;10.502;2022-12-20T20:23:43;98673.78;;;5.31
66473;BMP280;66089;50.000;10.502;2022-12-20T20:26:11;98677.50;;;5.36
66473;BMP280;66089;50.000;10.502;2022-12-20T20:28:38;98678.44;;;5.35
66473;BMP280;66089;50.000;10.502;2022-12-20T20:31:04;98702.06;;;5.36
66473;BMP280;66089;50.000;10.502;2022-12-20T20:33:32;98694.97;;;5.40
66473;BMP280;66089;50.000;10.502;2022-12-20T20:35:59;98696.19;;;5.35
66473;BMP280;66089;50.000;10.502;2022-12-20T20:38:26;98702.19;;;5.34
66473;BMP280;66089;50.000;10.502;2022-12-20T20:40:52;98705.25;;;5.38
66473;BMP280;66089;50.000;10.502;2022-12-20T20:43:18;98724.06;;;5.35
66473;BMP280;66089;50.000;10.502;2022-12-20T20:45:44;98720.72;;;5.35
66473;BMP280;66089;50.000;10.502;2022-12-20T20:48:09;98716.31;;;5.37
66473;BMP280;66089;50.000;10.502;2022-12-20T20:50:35;98703.53;;;5.39
66473;BMP280;66089;50.000;10.502;2022-12-20T20:53:01;98707.91;;;5.36
66473;BMP280;66089;50.000;10.502;2022-12-20T20:55:26;98701.91;;;5.38
66473;BMP280;66089;50.000;10.502;2022-12-20T20:57:51;98705.38;;;5.36
66473;BMP280;66089;50.000;10.502;2022-12-20T21:00:17;98708.31;;;5.42
66473;BMP280;66089;50.000;10.502;2022-12-20T21:02:43;98704.81;;;5.43
66473;BMP280;66089;50.000;10.502;2022-12-20T21:05:09;98701.13;;;5.37
66473;BMP280;66089;50.000;10.502;2022-12-20T21:07:35;98707.25;;;5.34
66473;BMP280;66089;50.000;10.502;2022-12-20T21:10:00;98714.72;;;5.36
66473;BMP280;66089;50.000;10.502;2022-12-20T21:12:25;98719.00;;;5.35
66473;BMP280;66089;50.000;10.502;2022-12-20T21:14:51;98723.00;;;5.38
66473;BMP280;66089;50.000;10.502;2022-12-20T21:17:16;98723.00;;;5.38
66473;BMP280;66089;50.000;10.502;2022-12-20T21:19:42;98727.25;;;5.38
66473;BMP280;66089;50.000;10.502;2022-12-20T21:22:07;98713.00;;;5.36
66473;BMP280;66089;50.000;10.502;2022-12-20T21:24:32;98723.41;;;5.33
66473;BMP280;66089;50.000;10.502;2022-12-20T21:26:57;98723.25;;;5.35
66473;BMP280;66089;50.000;10.502;2022-12-20T21:29:23;98725.25;;;5.31
66473;BMP280;66089;50.000;10.502;2022-12-20T21:31:49;98714.31;;;5.31
66473;BMP280;66089;50.000;10.502;2022-12-20T21:34:15;98713.53;;;5.30
66473;BMP280;66089;50.000;10.502;2022-12-20T21:36:40;98716.06;;;5.30
